Аэропорт: Национальный аэропорт Минск. Минск

ICAO: UMMS

METAR:
2020-10-23 11:30:00
UMMS 231130Z 22006G09MPS 9999 SCT018 14/11 Q1009 R31R/CLRD// R31L/////// NOSIG
METAR:
2020-10-23 05:02:00
TAF UMMS 230502Z 2305/2406 22006G11MPS 6000 BKN003 TEMPO 2305/2307 1500 BR BECMG 2307/2308 22007G12MPS BKN007 TEMPO 2308/2317 24009G14MPS 2100 -SHRA BKN004 SCT020CB BECMG 2317/2318 24003MPS 4000 BR BKN005 TEMPO 2318/2406 0300 -RA FG BKN002